Time;durP1;ratioP1;P1;durP2;ratioP2;P2;SDS_P1;SDS_P2;PMS_P1;PMS_P2;Temp;Humidity;BMP_temperature;BMP_pressure;BME280_temperature;BME280_humidity;BME280_pressure;Samples;Min_cycle;Max_cycle;Signal;HPM_P1;HPM_P2
2024/05/03 00:02:14;;;;;;;5.35;1.42;;;;;;;;;;5489851;26;19994;-87
2024/05/03 00:04:40;;;;;;;5.40;1.60;;;;;;;;;;5456508;26;20509;-88
2024/05/03 00:07:06;;;;;;;5.97;1.90;;;;;;;;;;5456481;26;20258;-88
2024/05/03 00:09:32;;;;;;;6.78;1.85;;;;;;;;;;5488446;26;20006;-88
2024/05/03 00:11:58;;;;;;;6.55;1.73;;;;;;;;;;5456672;26;19990;-87
2024/05/03 00:14:24;;;;;;;4.88;1.70;;;;;;;;;;5488414;26;20125;-88
2024/05/03 00:16:50;;;;;;;3.13;1.35;;;;;;;;;;5456310;26;19994;-88
2024/05/03 00:19:16;;;;;;;3.05;1.50;;;;;;;;;;5457631;26;20434;-88
2024/05/03 00:21:42;;;;;;;3.85;1.40;;;;;;;;;;5457028;26;20062;-88
2024/05/03 00:24:09;;;;;;;3.80;1.58;;;;;;;;;;5455923;26;20017;-87
2024/05/03 00:26:35;;;;;;;5.47;1.77;;;;;;;;;;5456571;26;19994;-89
2024/05/03 00:29:01;;;;;;;3.58;1.73;;;;;;;;;;5456337;26;20005;-87
2024/05/03 00:31:27;;;;;;;4.63;1.90;;;;;;;;;;5456681;26;20017;-89
2024/05/03 00:33:53;;;;;;;4.78;1.77;;;;;;;;;;5456397;26;20002;-88
2024/05/03 00:36:19;;;;;;;4.60;1.52;;;;;;;;;;5456722;26;19990;-89
2024/05/03 00:38:45;;;;;;;5.03;1.80;;;;;;;;;;5456826;26;19998;-87
2024/05/03 00:41:11;;;;;;;4.15;1.80;;;;;;;;;;5456354;26;19994;-88
2024/05/03 00:43:37;;;;;;;5.00;2.20;;;;;;;;;;5456429;26;20009;-89
2024/05/03 00:46:03;;;;;;;7.40;2.47;;;;;;;;;;5455386;26;19994;-88
2024/05/03 00:48:31;;;;;;;4.13;2.00;;;;;;;;;;5456067;26;20058;-88
2024/05/03 00:50:58;;;;;;;5.30;2.33;;;;;;;;;;5488136;26;19994;-88
2024/05/03 00:53:24;;;;;;;4.35;2.20;;;;;;;;;;5488129;26;20022;-88
2024/05/03 00:55:51;;;;;;;3.40;1.70;;;;;;;;;;5455895;26;20006;-88
2024/05/03 00:58:17;;;;;;;4.82;1.90;;;;;;;;;;5457081;26;19994;-87
2024/05/03 01:00:43;;;;;;;5.82;1.88;;;;;;;;;;5455822;26;20018;-87
2024/05/03 01:03:09;;;;;;;2.25;1.40;;;;;;;;;;5488030;26;20482;-87
2024/05/03 01:05:35;;;;;;;4.70;1.77;;;;;;;;;;5455922;26;19990;-88
2024/05/03 01:08:02;;;;;;;6.80;1.60;;;;;;;;;;5455853;26;20005;-88
2024/05/03 01:10:28;;;;;;;2.75;1.42;;;;;;;;;;5455385;26;19994;-90
2024/05/03 01:12:54;;;;;;;6.13;1.70;;;;;;;;;;5456290;26;20013;-88
2024/05/03 01:15:20;;;;;;;4.93;1.65;;;;;;;;;;5456698;26;19998;-88
2024/05/03 01:17:46;;;;;;;3.40;1.52;;;;;;;;;;5489071;26;19998;-88
2024/05/03 01:20:12;;;;;;;2.63;1.58;;;;;;;;;;5455572;26;20070;-88
2024/05/03 01:22:43;;;;;;;2.17;1.52;;;;;;;;;;5455734;26;19998;-88
2024/05/03 01:25:10;;;;;;;2.25;1.42;;;;;;;;;;5487941;26;20004;-88
2024/05/03 01:27:36;;;;;;;3.45;1.60;;;;;;;;;;5487617;26;20100;-88
2024/05/03 01:30:02;;;;;;;5.28;1.98;;;;;;;;;;5454936;26;20385;-88
2024/05/03 01:32:28;;;;;;;4.18;1.60;;;;;;;;;;5455600;26;19998;-88
2024/05/03 01:34:54;;;;;;;4.82;2.03;;;;;;;;;;5455700;26;20441;-89
2024/05/03 01:37:20;;;;;;;4.70;1.90;;;;;;;;;;5456500;26;19994;-88
2024/05/03 01:39:46;;;;;;;4.75;2.03;;;;;;;;;;5456146;26;20031;-88
2024/05/03 01:42:12;;;;;;;4.22;1.70;;;;;;;;;;5455860;26;19998;-88
2024/05/03 01:44:38;;;;;;;4.00;2.05;;;;;;;;;;5455295;26;20066;-88
2024/05/03 01:47:04;;;;;;;4.72;2.00;;;;;;;;;;5455150;26;19994;-87
2024/05/03 01:49:30;;;;;;;3.58;1.70;;;;;;;;;;5455014;26;20448;-88
2024/05/03 01:51:56;;;;;;;4.25;2.35;;;;;;;;;;5487413;26;20001;-88
2024/05/03 01:54:23;;;;;;;4.20;1.90;;;;;;;;;;5487395;26;20012;-88
2024/05/03 01:56:49;;;;;;;4.93;1.95;;;;;;;;;;5486953;26;19994;-88
2024/05/03 01:59:14;;;;;;;5.90;1.90;;;;;;;;;;5455077;26;20315;-88
2024/05/03 02:01:40;;;;;;;4.30;1.95;;;;;;;;;;5455164;26;20066;-88
2024/05/03 02:04:06;;;;;;;5.07;2.00;;;;;;;;;;5454449;26;20348;-87
2024/05/03 02:06:32;;;;;;;9.77;1.98;;;;;;;;;;5454924;26;20034;-88
2024/05/03 02:08:58;;;;;;;4.50;2.28;;;;;;;;;;5454931;26;20062;-87
2024/05/03 02:11:24;;;;;;;4.63;1.90;;;;;;;;;;5455091;26;20009;-87
2024/05/03 02:13:50;;;;;;;3.05;1.67;;;;;;;;;;5456256;26;20005;-87
2024/05/03 02:16:16;;;;;;;7.13;1.92;;;;;;;;;;5454882;26;19998;-88
2024/05/03 02:18:42;;;;;;;7.38;1.90;;;;;;;;;;5454825;26;20084;-88
2024/05/03 02:21:08;;;;;;;3.50;1.90;;;;;;;;;;5486737;26;20020;-88
2024/05/03 02:23:34;;;;;;;5.20;2.20;;;;;;;;;;5454949;26;20059;-88
2024/05/03 02:26:00;;;;;;;5.57;2.05;;;;;;;;;;5455260;26;19995;-88
2024/05/03 02:28:26;;;;;;;4.82;1.92;;;;;;;;;;5455276;26;20319;-89
2024/05/03 02:30:52;;;;;;;3.80;1.77;;;;;;;;;;5487430;26;20008;-88
2024/05/03 02:33:18;;;;;;;7.28;2.35;;;;;;;;;;5454821;26;19998;-88
2024/05/03 02:35:44;;;;;;;5.47;1.90;;;;;;;;;;5454946;26;20416;-88
2024/05/03 02:38:10;;;;;;;4.72;2.15;;;;;;;;;;5454236;26;20005;-88
2024/05/03 02:40:36;;;;;;;1.88;1.55;;;;;;;;;;5486350;26;20399;-87
2024/05/03 02:43:02;;;;;;;4.90;1.90;;;;;;;;;;5454712;26;19994;-89
2024/05/03 02:45:28;;;;;;;3.97;1.70;;;;;;;;;;5454987;26;20001;-88
2024/05/03 02:47:54;;;;;;;3.80;1.80;;;;;;;;;;5487375;26;20434;-88
2024/05/03 02:50:20;;;;;;;7.25;1.88;;;;;;;;;;5455182;26;20009;-88
2024/05/03 02:52:46;;;;;;;4.20;1.70;;;;;;;;;;5454413;26;19994;-88
2024/05/03 02:55:12;;;;;;;7.05;1.80;;;;;;;;;;5453698;26;20396;-88
2024/05/03 02:57:38;;;;;;;4.95;2.10;;;;;;;;;;5454120;26;20017;-88
2024/05/03 03:00:05;;;;;;;2.88;1.73;;;;;;;;;;5486127;26;20454;-88
2024/05/03 03:02:31;;;;;;;3.17;1.85;;;;;;;;;;5485994;26;20002;-88
2024/05/03 03:04:57;;;;;;;6.40;2.08;;;;;;;;;;5454209;26;19998;-87
2024/05/03 03:07:23;;;;;;;7.80;2.22;;;;;;;;;;5486902;26;19994;-88
2024/05/03 03:09:49;;;;;;;3.22;2.20;;;;;;;;;;5492905;26;19994;-87
2024/05/03 03:12:15;;;;;;;3.78;2.00;;;;;;;;;;5493064;26;20010;-89
2024/05/03 03:14:41;;;;;;;5.30;2.13;;;;;;;;;;5462010;26;20062;-88
2024/05/03 03:17:07;;;;;;;7.22;2.00;;;;;;;;;;5461298;26;20013;-87
2024/05/03 03:19:33;;;;;;;6.75;2.00;;;;;;;;;;5461520;26;19998;-88
2024/05/03 03:22:00;;;;;;;5.13;2.40;;;;;;;;;;5493679;26;19998;-88
2024/05/03 03:24:27;;;;;;;5.57;2.42;;;;;;;;;;5494256;26;20461;-87
2024/05/03 03:26:52;;;;;;;5.00;2.08;;;;;;;;;;5462099;26;20002;-88
2024/05/03 03:29:18;;;;;;;3.40;1.90;;;;;;;;;;5461338;26;19990;-89
2024/05/03 03:31:45;;;;;;;5.55;1.92;;;;;;;;;;5461387;26;20066;-87
2024/05/03 03:34:19;;;;;;;4.40;2.13;;;;;;;;;;5493512;26;19994;-88
2024/05/03 03:36:45;;;;;;;3.42;2.20;;;;;;;;;;5460983;26;19994;-88
2024/05/03 03:39:12;;;;;;;4.47;2.20;;;;;;;;;;5461516;26;20019;-88
2024/05/03 03:41:44;;;;;;;3.53;1.83;;;;;;;;;;5493579;26;19990;-88
2024/05/03 03:44:10;;;;;;;4.85;2.10;;;;;;;;;;5461225;26;20006;-88
2024/05/03 03:46:36;;;;;;;7.53;2.33;;;;;;;;;;5461194;26;20447;-89
2024/05/03 03:49:03;;;;;;;4.93;2.00;;;;;;;;;;5461104;26;19994;-88
2024/05/03 03:51:29;;;;;;;4.95;2.05;;;;;;;;;;5460858;26;19998;-87
2024/05/03 03:53:55;;;;;;;6.53;2.05;;;;;;;;;;5493665;26;20005;-87
2024/05/03 03:56:21;;;;;;;3.35;2.15;;;;;;;;;;5460874;26;20092;-88
2024/05/03 03:58:47;;;;;;;6.00;2.17;;;;;;;;;;5460897;26;19998;-87
2024/05/03 04:01:13;;;;;;;3.03;1.90;;;;;;;;;;5492991;26;20018;-88
2024/05/03 04:03:39;;;;;;;7.38;2.00;;;;;;;;;;5460379;26;20067;-88
2024/05/03 04:06:05;;;;;;;2.42;1.90;;;;;;;;;;5460784;26;20446;-88
2024/05/03 04:08:31;;;;;;;3.08;1.77;;;;;;;;;;5460932;26;20010;-88
2024/05/03 04:10:57;;;;;;;3.50;1.85;;;;;;;;;;5461814;26;20004;-89
2024/05/03 04:13:23;;;;;;;3.67;2.00;;;;;;;;;;5460785;26;19998;-87
2024/05/03 04:15:48;;;;;;;4.43;1.90;;;;;;;;;;5460940;26;20021;-87
2024/05/03 04:18:15;;;;;;;2.47;1.60;;;;;;;;;;5460956;26;20450;-88
2024/05/03 04:20:41;;;;;;;5.82;1.92;;;;;;;;;;5488449;26;19994;-87
2024/05/03 04:23:07;;;;;;;5.10;2.22;;;;;;;;;;5456423;26;20338;-88
2024/05/03 04:25:33;;;;;;;2.28;1.60;;;;;;;;;;5456543;26;20005;-88
2024/05/03 04:27:59;;;;;;;6.38;2.00;;;;;;;;;;5457256;26;20009;-87
2024/05/03 04:30:25;;;;;;;7.80;2.30;;;;;;;;;;5456493;26;19994;-88
2024/05/03 04:32:51;;;;;;;2.95;1.90;;;;;;;;;;5456417;26;20006;-88
2024/05/03 04:35:17;;;;;;;6.53;2.00;;;;;;;;;;5455560;26;20082;-89
2024/05/03 04:37:43;;;;;;;3.38;1.67;;;;;;;;;;5456408;26;20005;-88
2024/05/03 04:40:09;;;;;;;4.57;2.00;;;;;;;;;;5456168;26;20014;-87
2024/05/03 04:42:35;;;;;;;5.70;2.17;;;;;;;;;;5455535;26;19998;-87
2024/05/03 04:45:01;;;;;;;2.20;1.65;;;;;;;;;;5456694;26;20030;-88
2024/05/03 04:47:27;;;;;;;4.72;2.30;;;;;;;;;;5456553;26;20002;-87
2024/05/03 04:49:54;;;;;;;8.50;2.47;;;;;;;;;;5455748;26;19998;-88
2024/05/03 04:52:20;;;;;;;3.30;2.00;;;;;;;;;;5455282;26;20013;-89
2024/05/03 04:54:49;;;;;;;4.90;2.30;;;;;;;;;;5455744;26;19994;-92
2024/05/03 04:57:16;;;;;;;4.97;2.10;;;;;;;;;;5456068;26;19994;-88
2024/05/03 04:59:42;;;;;;;5.18;2.20;;;;;;;;;;5455997;26;20318;-88
2024/05/03 05:02:08;;;;;;;2.38;1.73;;;;;;;;;;5456274;26;20004;-88
2024/05/03 05:04:34;;;;;;;5.72;2.10;;;;;;;;;;5441507;26;20002;-85
2024/05/03 05:07:00;;;;;;;4.82;2.10;;;;;;;;;;5459328;26;20075;-88
2024/05/03 05:09:26;;;;;;;2.20;1.92;;;;;;;;;;5452520;26;20011;-86
2024/05/03 05:11:52;;;;;;;2.67;2.42;;;;;;;;;;5451868;26;20183;-86
2024/05/03 05:14:18;;;;;;;4.53;2.40;;;;;;;;;;5458717;26;20048;-86
2024/05/03 05:16:44;;;;;;;4.32;2.28;;;;;;;;;;5450975;26;20008;-86
2024/05/03 05:19:10;;;;;;;3.13;2.35;;;;;;;;;;5460675;26;20026;-84
2024/05/03 05:24:21;;;;;;;2.25;1.83;;;;;;;;;;5484855;26;20009;-87
2024/05/03 05:26:47;;;;;;;3.15;1.90;;;;;;;;;;5453563;26;20438;-85
2024/05/03 05:29:13;;;;;;;3.35;2.08;;;;;;;;;;5453329;26;20032;-87
2024/05/03 05:31:45;;;;;;;2.45;1.85;;;;;;;;;;5486402;26;20030;-85
2024/05/03 05:34:14;;;;;;;4.28;2.00;;;;;;;;;;5452359;26;20070;-86
2024/05/03 05:36:40;;;;;;;4.13;2.00;;;;;;;;;;5485647;26;19998;-86
2024/05/03 05:39:07;;;;;;;5.63;2.08;;;;;;;;;;5454764;26;20006;-86
2024/05/03 05:41:33;;;;;;;5.45;2.10;;;;;;;;;;5487052;26;20022;-85
2024/05/03 05:44:00;;;;;;;2.40;1.80;;;;;;;;;;5488001;26;20013;-85
2024/05/03 05:46:29;;;;;;;3.15;1.70;;;;;;;;;;5487460;26;20005;-92
2024/05/03 05:48:55;;;;;;;7.55;2.00;;;;;;;;;;5457191;26;20058;-87
2024/05/03 05:51:21;;;;;;;3.22;1.90;;;;;;;;;;5454797;26;19994;-86
2024/05/03 05:53:52;;;;;;;10.85;2.20;;;;;;;;;;5454121;26;19994;-91
2024/05/03 05:56:18;;;;;;;3.05;2.00;;;;;;;;;;5457598;26;20006;-91
2024/05/03 05:58:44;;;;;;;4.90;1.80;;;;;;;;;;5464632;26;19997;-88
2024/05/03 06:01:10;;;;;;;7.10;2.00;;;;;;;;;;5455881;26;20364;-87
2024/05/03 06:03:36;;;;;;;3.72;2.20;;;;;;;;;;5455882;26;19994;-89
2024/05/03 06:06:02;;;;;;;4.30;2.00;;;;;;;;;;5456305;26;19998;-89
2024/05/03 06:08:27;;;;;;;5.03;2.40;;;;;;;;;;5441409;26;19998;-88
2024/05/03 06:10:53;;;;;;;8.38;1.90;;;;;;;;;;5419580;26;20336;-88
2024/05/03 06:13:19;;;;;;;3.08;2.10;;;;;;;;;;5470135;26;20002;-87
2024/05/03 06:15:45;;;;;;;6.18;2.40;;;;;;;;;;5447508;26;19999;-88
2024/05/03 06:18:11;;;;;;;6.45;2.00;;;;;;;;;;5449485;26;20075;-88
2024/05/03 06:20:40;;;;;;;6.53;2.20;;;;;;;;;;5455007;26;19998;-87
2024/05/03 06:23:06;;;;;;;10.60;2.22;;;;;;;;;;5430868;26;20049;-86
2024/05/03 06:25:32;;;;;;;4.70;2.05;;;;;;;;;;5454978;26;20002;-88
2024/05/03 06:27:58;;;;;;;7.13;2.30;;;;;;;;;;5485539;26;19994;-85
2024/05/03 06:30:24;;;;;;;4.28;2.30;;;;;;;;;;5453292;26;20079;-88
2024/05/03 06:32:50;;;;;;;5.38;2.20;;;;;;;;;;5485586;26;19990;-87
2024/05/03 06:35:16;;;;;;;6.07;2.20;;;;;;;;;;5454022;26;19998;-87
2024/05/03 06:37:42;;;;;;;7.05;2.28;;;;;;;;;;5454356;26;20453;-88
2024/05/03 06:40:09;;;;;;;2.60;1.90;;;;;;;;;;5453097;26;20002;-86
2024/05/03 06:42:35;;;;;;;12.32;2.40;;;;;;;;;;5460270;26;20073;-87
2024/05/03 06:45:01;;;;;;;4.93;1.85;;;;;;;;;;5487496;26;19997;-89
2024/05/03 06:47:27;;;;;;;3.53;1.75;;;;;;;;;;5491122;26;19990;-87
2024/05/03 06:49:53;;;;;;;5.45;1.80;;;;;;;;;;5490764;26;19993;-88
2024/05/03 06:52:19;;;;;;;5.28;1.90;;;;;;;;;;5490692;26;20438;-89
2024/05/03 06:54:45;;;;;;;2.97;1.80;;;;;;;;;;5470124;26;20002;-88
2024/05/03 06:57:12;;;;;;;5.55;1.90;;;;;;;;;;5453946;26;20002;-87
2024/05/03 06:59:38;;;;;;;3.97;1.73;;;;;;;;;;5454463;26;20002;-88
2024/05/03 07:02:04;;;;;;;2.85;1.80;;;;;;;;;;5455131;26;19994;-89
2024/05/03 07:04:30;;;;;;;8.55;1.88;;;;;;;;;;5453858;26;20002;-89
2024/05/03 07:06:56;;;;;;;6.43;1.95;;;;;;;;;;5453074;26;20315;-87
2024/05/03 07:09:22;;;;;;;2.83;1.50;;;;;;;;;;5485703;26;20013;-87
2024/05/03 07:11:48;;;;;;;5.78;1.98;;;;;;;;;;5485168;26;20002;-87
2024/05/03 07:14:14;;;;;;;4.85;2.00;;;;;;;;;;5444736;26;19995;-87
2024/05/03 07:16:40;;;;;;;4.00;2.03;;;;;;;;;;5473204;26;20005;-87
2024/05/03 07:19:06;;;;;;;4.15;2.10;;;;;;;;;;5453985;26;20062;-87
2024/05/03 07:21:33;;;;;;;5.50;1.73;;;;;;;;;;5475633;26;19998;-88
2024/05/03 07:23:58;;;;;;;3.10;1.83;;;;;;;;;;5475264;26;20232;-88
2024/05/03 07:26:27;;;;;;;5.45;1.77;;;;;;;;;;5453588;26;20119;-88
2024/05/03 07:28:57;;;;;;;10.23;2.30;;;;;;;;;;5484467;26;20001;-87
2024/05/03 07:31:23;;;;;;;4.00;1.80;;;;;;;;;;5484812;26;20360;-87
2024/05/03 07:33:49;;;;;;;4.57;1.65;;;;;;;;;;5452711;26;20001;-87
2024/05/03 07:36:15;;;;;;;3.75;1.65;;;;;;;;;;5453745;26;19994;-88
2024/05/03 07:38:41;;;;;;;3.88;1.73;;;;;;;;;;5484303;26;20017;-87
2024/05/03 07:41:07;;;;;;;4.60;1.75;;;;;;;;;;5453280;26;20001;-87
2024/05/03 07:43:33;;;;;;;5.55;1.80;;;;;;;;;;5484772;26;20005;-87
2024/05/03 07:45:59;;;;;;;5.05;1.50;;;;;;;;;;5483749;26;19999;-86
2024/05/03 07:48:25;;;;;;;2.92;1.30;;;;;;;;;;5451502;26;20063;-87
2024/05/03 07:50:51;;;;;;;7.05;1.77;;;;;;;;;;5452739;26;20010;-87
2024/05/03 07:53:17;;;;;;;5.25;1.50;;;;;;;;;;5452168;26;19994;-87
2024/05/03 07:55:43;;;;;;;5.60;1.17;;;;;;;;;;5453636;26;19994;-88
2024/05/03 07:58:09;;;;;;;8.52;1.77;;;;;;;;;;5489065;26;20414;-86
2024/05/03 08:00:35;;;;;;;5.88;1.50;;;;;;;;;;5488689;26;19990;-87
2024/05/03 08:03:02;;;;;;;8.82;1.95;;;;;;;;;;5455963;26;19998;-88
2024/05/03 08:05:28;;;;;;;5.60;1.40;;;;;;;;;;5456252;26;20338;-87
2024/05/03 08:07:54;;;;;;;4.28;1.48;;;;;;;;;;5454923;26;20017;-87
2024/05/03 08:10:20;;;;;;;3.33;1.13;;;;;;;;;;5488177;26;20015;-87
2024/05/03 08:12:46;;;;;;;10.18;1.60;;;;;;;;;;5455821;26;19998;-87
2024/05/03 08:15:13;;;;;;;4.25;1.45;;;;;;;;;;5455812;26;19994;-88
2024/05/03 08:17:39;;;;;;;5.25;1.30;;;;;;;;;;5456676;26;20009;-88
2024/05/03 08:20:05;;;;;;;5.68;1.25;;;;;;;;;;5455323;26;19994;-88
2024/05/03 08:22:32;;;;;;;5.43;1.40;;;;;;;;;;5455968;26;19998;-88
2024/05/03 08:25:01;;;;;;;7.35;1.35;;;;;;;;;;5487263;26;20002;-88
2024/05/03 08:27:27;;;;;;;3.33;1.00;;;;;;;;;;5455875;26;20005;-87
2024/05/03 08:29:53;;;;;;;6.35;1.40;;;;;;;;;;5455604;26;20005;-88
2024/05/03 08:32:19;;;;;;;2.15;0.95;;;;;;;;;;5455508;26;20430;-87
2024/05/03 08:34:45;;;;;;;5.10;1.08;;;;;;;;;;5455493;26;20070;-87
2024/05/03 08:37:11;;;;;;;7.82;1.50;;;;;;;;;;5488949;26;19991;-87
2024/05/03 08:39:37;;;;;;;5.35;1.35;;;;;;;;;;5455656;26;20005;-88
2024/05/03 08:42:10;;;;;;;5.18;1.02;;;;;;;;;;5486725;26;20969;-88
2024/05/03 08:44:37;;;;;;;5.95;1.20;;;;;;;;;;5487571;26;20009;-87
2024/05/03 08:47:06;;;;;;;4.33;1.00;;;;;;;;;;5455175;26;19998;-87
2024/05/03 08:49:34;;;;;;;3.83;0.95;;;;;;;;;;5455853;26;20067;-87
2024/05/03 08:52:01;;;;;;;2.60;1.10;;;;;;;;;;5455218;26;20010;-87
2024/05/03 08:54:28;;;;;;;4.88;1.17;;;;;;;;;;5454908;26;20009;-87
2024/05/03 08:56:54;;;;;;;2.90;0.93;;;;;;;;;;5454451;26;20335;-88
2024/05/03 08:59:21;;;;;;;3.55;1.00;;;;;;;;;;5455267;26;19994;-88
2024/05/03 09:01:47;;;;;;;1.70;0.70;;;;;;;;;;5455016;26;20091;-87
2024/05/03 09:04:13;;;;;;;5.68;1.15;;;;;;;;;;5455943;26;20398;-88
2024/05/03 09:06:43;;;;;;;3.72;1.00;;;;;;;;;;5455892;26;20002;-88
2024/05/03 09:09:09;;;;;;;4.78;1.00;;;;;;;;;;5487886;26;19990;-87
2024/05/03 09:11:36;;;;;;;4.45;1.35;;;;;;;;;;5487366;26;20029;-87
2024/05/03 09:14:02;;;;;;;2.72;0.98;;;;;;;;;;5455291;26;20426;-87
2024/05/03 09:16:30;;;;;;;2.70;1.02;;;;;;;;;;5454752;26;20090;-87
2024/05/03 09:18:56;;;;;;;1.45;0.88;;;;;;;;;;5454715;26;20314;-87
2024/05/03 09:21:22;;;;;;;3.85;0.98;;;;;;;;;;5455669;26;20000;-88
2024/05/03 09:23:48;;;;;;;5.57;1.10;;;;;;;;;;5455022;26;19990;-87
2024/05/03 09:26:15;;;;;;;4.70;1.05;;;;;;;;;;5487739;26;20002;-89
2024/05/03 09:28:41;;;;;;;4.10;0.80;;;;;;;;;;5456781;26;20066;-87
2024/05/03 09:31:08;;;;;;;5.45;1.23;;;;;;;;;;5479797;26;20002;-86
2024/05/03 09:33:34;;;;;;;4.53;1.20;;;;;;;;;;5484964;26;20075;-88
2024/05/03 09:36:00;;;;;;;3.60;1.13;;;;;;;;;;5466590;26;19998;-87
2024/05/03 09:38:26;;;;;;;2.65;0.73;;;;;;;;;;5485902;26;20009;-87
2024/05/03 09:40:52;;;;;;;3.75;1.00;;;;;;;;;;5484585;26;20066;-88
2024/05/03 09:43:20;;;;;;;3.70;0.85;;;;;;;;;;5484579;26;20026;-86
2024/05/03 09:45:49;;;;;;;2.93;1.00;;;;;;;;;;5510007;26;20005;-87
2024/05/03 09:48:19;;;;;;;3.67;0.82;;;;;;;;;;5491853;26;20771;-89
2024/05/03 09:50:48;;;;;;;4.75;0.88;;;;;;;;;;5491131;26;20001;-88
2024/05/03 09:53:17;;;;;;;3.05;0.80;;;;;;;;;;5490724;26;19993;-88
2024/05/03 09:55:50;;;;;;;3.85;0.90;;;;;;;;;;5474143;26;20006;-87
2024/05/03 09:58:31;;;;;;;3.33;1.17;;;;;;;;;;5454769;26;20111;-86
2024/05/03 10:00:58;;;;;;;5.40;0.80;;;;;;;;;;5486599;26;20005;-86
2024/05/03 10:03:24;;;;;;;2.95;0.90;;;;;;;;;;5454353;26;19990;-89
2024/05/03 10:05:51;;;;;;;3.42;1.10;;;;;;;;;;5454393;26;20423;-89
2024/05/03 10:08:20;;;;;;;4.15;1.00;;;;;;;;;;5454565;26;19997;-88
2024/05/03 10:10:47;;;;;;;2.63;0.90;;;;;;;;;;5453516;26;20013;-86
2024/05/03 10:13:17;;;;;;;2.20;0.88;;;;;;;;;;5453805;26;20002;-88
2024/05/03 10:15:43;;;;;;;2.17;0.98;;;;;;;;;;5454076;26;20006;-86
2024/05/03 10:18:10;;;;;;;2.45;0.85;;;;;;;;;;5452779;26;19994;-86
2024/05/03 10:20:36;;;;;;;2.38;0.80;;;;;;;;;;5485704;26;19998;-87
2024/05/03 10:23:03;;;;;;;2.05;0.80;;;;;;;;;;5453036;26;20070;-86
2024/05/03 10:25:29;;;;;;;2.33;0.88;;;;;;;;;;5454157;26;19994;-88
2024/05/03 10:27:56;;;;;;;1.88;0.80;;;;;;;;;;5453704;26;20017;-88
2024/05/03 10:30:22;;;;;;;1.20;0.60;;;;;;;;;;5454498;26;20001;-88
2024/05/03 10:32:49;;;;;;;1.42;0.68;;;;;;;;;;5453932;26;19998;-88
2024/05/03 10:35:21;;;;;;;5.25;0.77;;;;;;;;;;5454562;26;20062;-87
2024/05/03 10:37:47;;;;;;;3.33;0.90;;;;;;;;;;5454213;26;20006;-88
2024/05/03 10:40:15;;;;;;;2.22;0.90;;;;;;;;;;5454235;26;20323;-88
2024/05/03 10:42:41;;;;;;;2.90;0.90;;;;;;;;;;5455009;26;19998;-86
2024/05/03 10:45:07;;;;;;;2.58;0.80;;;;;;;;;;5448702;26;20009;-86
2024/05/03 10:47:34;;;;;;;3.35;1.10;;;;;;;;;;5485909;26;19994;-87
2024/05/03 10:50:00;;;;;;;4.75;1.67;;;;;;;;;;5475582;26;20066;-86
2024/05/03 10:52:26;;;;;;;8.77;1.50;;;;;;;;;;5453890;26;20010;-86
2024/05/03 10:54:52;;;;;;;7.70;1.50;;;;;;;;;;5485453;26;20438;-87
2024/05/03 10:57:18;;;;;;;5.85;1.50;;;;;;;;;;5484785;26;20008;-86
2024/05/03 10:59:48;;;;;;;3.33;1.20;;;;;;;;;;5453100;26;20002;-88
2024/05/03 11:02:14;;;;;;;6.30;1.70;;;;;;;;;;5453187;26;20340;-87
2024/05/03 11:04:40;;;;;;;3.88;1.58;;;;;;;;;;5454804;26;20008;-86
2024/05/03 11:07:06;;;;;;;6.75;1.58;;;;;;;;;;5453420;26;20009;-87
2024/05/03 11:09:33;;;;;;;3.53;1.00;;;;;;;;;;5453843;26;20423;-87
2024/05/03 11:11:59;;;;;;;2.65;1.20;;;;;;;;;;5453622;26;20022;-88
2024/05/03 11:14:27;;;;;;;2.35;1.00;;;;;;;;;;5453115;26;20063;-87
2024/05/03 11:16:54;;;;;;;3.97;1.00;;;;;;;;;;5453401;26;19998;-89
2024/05/03 11:19:20;;;;;;;3.97;1.00;;;;;;;;;;5453879;26;20451;-88
2024/05/03 11:21:47;;;;;;;2.45;1.15;;;;;;;;;;5453249;26;19994;-88
2024/05/03 11:24:26;;;;;;;3.25;1.10;;;;;;;;;;5454054;26;20004;-88
2024/05/03 11:27:00;;;;;;;1.63;0.95;;;;;;;;;;5485512;26;19990;-89
2024/05/03 11:29:26;;;;;;;2.05;0.80;;;;;;;;;;5454291;26;19994;-88
2024/05/03 11:31:52;;;;;;;2.92;0.98;;;;;;;;;;5437637;26;20030;-88
2024/05/03 11:34:23;;;;;;;2.08;0.80;;;;;;;;;;5421299;26;20072;-89
2024/05/03 11:36:50;;;;;;;2.42;1.00;;;;;;;;;;5421023;26;20415;-88
2024/05/03 11:39:16;;;;;;;1.75;0.80;;;;;;;;;;5420893;26;20009;-88
2024/05/03 11:41:42;;;;;;;1.88;0.95;;;;;;;;;;5421727;26;20005;-87
2024/05/03 11:44:08;;;;;;;1.15;1.05;;;;;;;;;;5452853;26;19999;-87
2024/05/03 11:46:35;;;;;;;2.88;0.88;;;;;;;;;;5421390;26;20009;-86
2024/05/03 11:49:04;;;;;;;3.85;1.02;;;;;;;;;;5429940;26;20018;-88
2024/05/03 11:51:33;;;;;;;1.83;1.00;;;;;;;;;;5465635;26;20074;-88
2024/05/03 11:54:03;;;;;;;2.95;1.10;;;;;;;;;;5456662;26;19990;-88
2024/05/03 11:56:30;;;;;;;2.50;0.90;;;;;;;;;;5456861;26;20062;-87
2024/05/03 11:58:59;;;;;;;2.35;1.10;;;;;;;;;;5456685;26;20369;-89
2024/05/03 12:01:26;;;;;;;2.05;0.90;;;;;;;;;;5456955;26;19991;-89
2024/05/03 12:03:52;;;;;;;2.63;1.30;;;;;;;;;;5488301;26;20009;-89
2024/05/03 12:06:18;;;;;;;4.32;1.60;;;;;;;;;;5456862;26;19990;-88
2024/05/03 12:08:45;;;;;;;2.03;1.13;;;;;;;;;;5456501;26;20006;-86
2024/05/03 12:11:11;;;;;;;2.70;1.02;;;;;;;;;;5456865;26;20430;-88
2024/05/03 12:13:37;;;;;;;2.70;1.20;;;;;;;;;;5456574;26;20001;-88
2024/05/03 12:16:03;;;;;;;2.05;0.98;;;;;;;;;;5456852;26;20305;-88
2024/05/03 12:18:29;;;;;;;2.28;1.00;;;;;;;;;;5456402;26;19994;-88
2024/05/03 12:20:56;;;;;;;3.00;1.08;;;;;;;;;;5456753;26;20378;-88
2024/05/03 12:23:28;;;;;;;2.92;1.10;;;;;;;;;;5457633;26;20005;-94
2024/05/03 12:25:54;;;;;;;2.58;0.98;;;;;;;;;;5456348;26;20095;-88
2024/05/03 12:28:20;;;;;;;4.47;1.00;;;;;;;;;;5456711;26;19998;-88
2024/05/03 12:30:46;;;;;;;2.90;0.98;;;;;;;;;;5456434;26;20005;-87
2024/05/03 12:33:13;;;;;;;2.72;0.80;;;;;;;;;;5457108;26;20005;-89
2024/05/03 12:35:39;;;;;;;3.17;0.90;;;;;;;;;;5457631;26;20427;-90
2024/05/03 12:38:05;;;;;;;2.08;0.93;;;;;;;;;;5456877;26;19994;-92
2024/05/03 12:40:31;;;;;;;1.70;1.02;;;;;;;;;;5456417;26;20341;-92
2024/05/03 12:42:57;;;;;;;1.88;1.15;;;;;;;;;;5455695;26;19994;-87
2024/05/03 12:45:23;;;;;;;1.92;1.00;;;;;;;;;;5454854;26;20025;-89
2024/05/03 12:47:51;;;;;;;1.90;0.93;;;;;;;;;;5477511;26;20002;-91
2024/05/03 12:50:17;;;;;;;1.73;0.68;;;;;;;;;;5456906;26;19998;-89
2024/05/03 12:52:46;;;;;;;2.40;0.88;;;;;;;;;;5457585;26;19994;-90
2024/05/03 12:55:12;;;;;;;1.08;0.73;;;;;;;;;;5457489;26;20367;-90
2024/05/03 12:57:40;;;;;;;1.48;1.00;;;;;;;;;;5425773;26;19995;-90
2024/05/03 13:00:06;;;;;;;0.93;0.65;;;;;;;;;;5481374;26;20035;-89
2024/05/03 13:02:32;;;;;;;5.13;0.90;;;;;;;;;;5480948;26;20009;-90
2024/05/03 13:04:58;;;;;;;3.75;0.80;;;;;;;;;;5480878;26;20019;-90
2024/05/03 13:07:24;;;;;;;1.67;0.70;;;;;;;;;;5480881;26;19994;-90
2024/05/03 13:09:54;;;;;;;1.40;0.80;;;;;;;;;;5482122;26;20009;-91
2024/05/03 13:12:40;;;;;;;1.23;0.60;;;;;;;;;;5472003;26;20008;-89
2024/05/03 13:15:07;;;;;;;1.15;0.50;;;;;;;;;;5456072;26;20115;-90
2024/05/03 13:17:33;;;;;;;2.15;0.60;;;;;;;;;;5456806;26;20184;-89
2024/05/03 13:19:59;;;;;;;0.47;0.45;;;;;;;;;;5456658;26;19998;-91
2024/05/03 13:22:25;;;;;;;0.85;0.50;;;;;;;;;;5456665;26;19994;-90
2024/05/03 13:24:51;;;;;;;1.25;0.60;;;;;;;;;;5456619;26;20008;-89
2024/05/03 13:27:17;;;;;;;1.88;0.65;;;;;;;;;;5456801;26;19994;-89
2024/05/03 13:29:44;;;;;;;2.05;0.50;;;;;;;;;;5456531;26;20006;-91
2024/05/03 13:32:10;;;;;;;2.15;0.55;;;;;;;;;;5457234;26;19995;-91
2024/05/03 13:34:36;;;;;;;1.42;0.50;;;;;;;;;;5456478;26;20373;-91
2024/05/03 13:37:02;;;;;;;2.00;0.50;;;;;;;;;;5456693;26;20326;-91
2024/05/03 13:39:28;;;;;;;1.35;0.70;;;;;;;;;;5456354;26;19990;-90
2024/05/03 13:41:54;;;;;;;2.42;0.80;;;;;;;;;;5456292;26;19994;-89
2024/05/03 13:44:20;;;;;;;1.80;0.80;;;;;;;;;;5456319;26;20005;-89
2024/05/03 13:46:47;;;;;;;5.78;1.60;;;;;;;;;;5456347;26;19998;-92
2024/05/03 13:49:14;;;;;;;2.67;1.20;;;;;;;;;;5456995;26;19994;-90
2024/05/03 13:51:42;;;;;;;1.60;1.10;;;;;;;;;;5457042;26;19994;-90
2024/05/03 13:54:27;;;;;;;2.85;1.05;;;;;;;;;;5457198;26;19998;-91
2024/05/03 13:56:56;;;;;;;1.65;0.82;;;;;;;;;;5456712;26;19994;-91
2024/05/03 13:59:27;;;;;;;1.67;0.80;;;;;;;;;;5456456;26;20427;-93
2024/05/03 14:01:59;;;;;;;1.23;0.70;;;;;;;;;;5461586;26;20010;-91
2024/05/03 14:04:25;;;;;;;0.88;0.60;;;;;;;;;;5462614;26;20016;-90
2024/05/03 14:06:51;;;;;;;2.70;0.68;;;;;;;;;;5487872;26;20004;-90
2024/05/03 14:09:18;;;;;;;2.30;0.73;;;;;;;;;;5455817;26;20350;-91
2024/05/03 14:11:44;;;;;;;1.85;0.80;;;;;;;;;;5455833;26;20326;-89
2024/05/03 14:14:10;;;;;;;2.38;1.08;;;;;;;;;;5456742;26;20058;-89
2024/05/03 14:16:36;;;;;;;2.28;0.82;;;;;;;;;;5455800;26;19994;-90
2024/05/03 14:19:02;;;;;;;2.10;0.73;;;;;;;;;;5455583;26;20006;-90
2024/05/03 14:21:28;;;;;;;0.82;0.68;;;;;;;;;;5455693;26;19994;-91
2024/05/03 14:23:54;;;;;;;1.27;0.60;;;;;;;;;;5455743;26;20451;-91
2024/05/03 14:26:20;;;;;;;2.25;0.70;;;;;;;;;;5455851;26;20058;-92
2024/05/03 14:28:46;;;;;;;3.75;0.90;;;;;;;;;;5456140;26;20008;-90
2024/05/03 14:31:12;;;;;;;1.40;0.75;;;;;;;;;;5456752;26;20006;-91
2024/05/03 14:33:38;;;;;;;4.50;0.70;;;;;;;;;;5456395;26;19994;-90
2024/05/03 14:36:05;;;;;;;1.90;0.80;;;;;;;;;;5455405;26;20001;-89
2024/05/03 14:38:31;;;;;;;1.65;0.95;;;;;;;;;;5440143;26;20348;-90
2024/05/03 14:40:57;;;;;;;2.45;0.75;;;;;;;;;;5418916;26;20002;-91
2024/05/03 14:43:23;;;;;;;2.00;0.80;;;;;;;;;;5419318;26;20044;-89